Time;durP1;ratioP1;P1;durP2;ratioP2;P2;SDS_P1;SDS_P2;PMS_P1;PMS_P2;Temp;Humidity;BMP_temperature;BMP_pressure;BME280_temperature;BME280_humidity;BME280_pressure;Samples;Min_cycle;Max_cycle;Signal;HPM_P1;HPM_P2
2023/09/18 00:00:22;;;;;;;;;1.75;1.25;;;;;21.26;71.70;100040.22;5071540;28;45348;-84
2023/09/18 00:02:48;;;;;;;;;1.50;1.00;;;;;21.24;71.63;100034.19;5079577;28;63127;-84
2023/09/18 00:05:15;;;;;;;;;3.25;2.50;;;;;21.24;71.65;100040.34;5069686;28;45583;-84
2023/09/18 00:07:42;;;;;;;;;2.00;2.00;;;;;21.22;71.93;100038.78;5080648;28;45415;-85
2023/09/18 00:10:08;;;;;;;;;4.00;4.00;;;;;21.22;72.48;100054.75;5069326;27;45265;-86
2023/09/18 00:12:33;;;;;;;;;4.00;3.00;;;;;21.18;72.48;100056.84;5073871;28;45836;-86
2023/09/18 00:14:59;;;;;;;;;3.25;2.50;;;;;21.15;72.57;100069.53;5076576;28;59145;-85
2023/09/18 00:17:24;;;;;;;;;4.00;3.00;;;;;21.13;72.54;100060.84;5076964;28;45560;-87
2023/09/18 00:19:51;;;;;;;;;5.00;3.00;;;;;21.10;72.07;100045.13;5080464;28;73391;-87
2023/09/18 00:22:17;;;;;;;;;6.50;3.00;;;;;21.04;72.23;100049.13;5076054;28;45219;-86
2023/09/18 00:24:42;;;;;;;;;5.00;2.25;;;;;21.03;72.26;100052.75;5071698;28;45552;-85
2023/09/18 00:27:07;;;;;;;;;3.00;3.00;;;;;21.01;72.52;100046.72;5070115;28;59933;-87
2023/09/18 00:29:32;;;;;;;;;3.25;2.00;;;;;20.99;72.37;100044.19;5081437;28;56778;-86
2023/09/18 00:31:58;;;;;;;;;5.75;2.00;;;;;20.97;72.89;100054.09;5079756;28;72063;-86
2023/09/18 00:34:23;;;;;;;;;2.50;2.50;;;;;20.94;72.41;100051.69;5080653;28;69148;-87
2023/09/18 00:36:48;;;;;;;;;2.00;2.00;;;;;20.93;72.81;100057.13;5080295;28;70941;-86
2023/09/18 00:39:15;;;;;;;;;2.00;2.00;;;;;20.88;72.79;100049.53;5079451;27;45380;-86
2023/09/18 00:41:40;;;;;;;;;2.50;1.50;;;;;20.85;72.70;100050.63;5083313;28;45625;-86
2023/09/18 00:44:06;;;;;;;;;2.00;2.00;;;;;20.83;72.84;100052.56;5084622;28;45410;-87
2023/09/18 00:46:32;;;;;;;;;3.50;1.00;;;;;20.81;72.83;100049.19;5085503;28;45492;-85
2023/09/18 00:48:58;;;;;;;;;3.75;1.00;;;;;20.78;72.32;100049.44;5086628;28;45303;-85
2023/09/18 00:51:23;;;;;;;;;3.00;1.00;;;;;20.75;72.62;100039.06;5082987;28;70914;-87
2023/09/18 00:53:49;;;;;;;;;1.75;1.50;;;;;20.73;72.21;100042.81;5070844;27;45450;-87
2023/09/18 00:56:15;;;;;;;;;3.25;1.25;;;;;20.71;72.30;100047.41;5073512;27;45250;-86
2023/09/18 00:58:40;;;;;;;;;2.00;1.00;;;;;20.67;71.88;100049.47;5085644;27;45703;-88
2023/09/18 01:01:06;;;;;;;;;3.00;1.00;;;;;20.64;72.36;100052.34;5077083;27;45725;-86
2023/09/18 01:03:31;;;;;;;;;2.25;2.00;;;;;20.61;72.63;100066.75;5078278;27;67906;-86
2023/09/18 01:05:57;;;;;;;;;1.00;1.00;;;;;20.61;72.35;100076.50;5078846;27;45877;-84
2023/09/18 01:08:22;;;;;;;;;3.25;1.00;;;;;20.61;71.92;100071.19;5070951;27;46205;-85
2023/09/18 01:11:05;;;;;;;;;4.00;1.75;;;;;20.58;72.80;100066.13;5064812;28;45519;-87
2023/09/18 01:13:36;;;;;;;;;3.75;1.00;;;;;20.55;71.76;100071.69;5063549;27;45417;-86
2023/09/18 01:16:11;;;;;;;;;3.00;1.00;;;;;20.53;72.26;100068.31;5074968;27;45481;-86
2023/09/18 01:18:36;;;;;;;;;1.00;1.00;;;;;20.48;72.24;100066.84;5066480;28;45376;-86
2023/09/18 01:21:02;;;;;;;;;3.00;0.25;;;;;20.46;71.68;100050.16;5064439;28;73184;-85
2023/09/18 01:23:27;;;;;;;;;2.00;2.00;;;;;20.47;71.94;100043.91;5073382;28;69161;-86
2023/09/18 01:25:52;;;;;;;;;1.50;1.00;;;;;20.47;72.25;100043.91;5070793;27;73042;-85
2023/09/18 01:28:18;;;;;;;;;2.75;1.50;;;;;20.47;71.68;100053.69;5077719;27;46183;-86
2023/09/18 01:30:44;;;;;;;;;3.00;1.75;;;;;20.48;72.10;100050.06;5080556;28;45231;-86
2023/09/18 01:33:10;;;;;;;;;2.50;1.00;;;;;20.52;71.58;100053.31;5072614;28;45547;-88
2023/09/18 01:35:36;;;;;;;;;1.00;1.00;;;;;20.51;71.69;100052.47;5073878;28;45380;-88
2023/09/18 01:38:03;;;;;;;;;1.75;1.75;;;;;20.51;71.17;100049.81;5073385;28;46233;-88
2023/09/18 01:40:28;;;;;;;;;2.25;1.00;;;;;20.51;71.12;100047.16;5079053;27;45470;-88
2023/09/18 01:42:54;;;;;;;;;4.00;1.25;;;;;20.50;71.14;100048.13;5077312;27;65055;-88
2023/09/18 01:45:19;;;;;;;;;1.25;1.00;;;;;20.52;71.38;100055.97;5074722;28;67361;-89
2023/09/18 01:47:46;;;;;;;;;1.00;0.50;;;;;20.51;71.17;100057.78;5079843;27;70954;-87
2023/09/18 01:50:11;;;;;;;;;1.50;1.00;;;;;20.52;70.91;100048.81;5063885;28;45469;-87
2023/09/18 01:52:36;;;;;;;;;0.25;0.25;;;;;20.54;71.19;100044.25;5061981;28;45395;-89
2023/09/18 01:55:05;;;;;;;;;1.00;0.25;;;;;20.52;70.99;100048.81;5086300;27;45592;-89
2023/09/18 01:57:31;;;;;;;;;1.00;0.25;;;;;20.48;70.81;100037.59;5084207;27;46122;-85
2023/09/18 01:59:56;;;;;;;;;1.00;1.00;;;;;20.48;70.50;100045.56;5080110;27;45449;-85
2023/09/18 02:02:22;;;;;;;;;0.75;0.75;;;;;20.49;70.63;100039.31;5071148;28;59727;-86
2023/09/18 02:04:47;;;;;;;;;5.00;2.00;;;;;20.48;70.29;100044.72;5078954;28;45303;-88
2023/09/18 02:07:13;;;;;;;;;0.25;0.25;;;;;20.48;70.54;100048.22;5082555;28;72184;-89
2023/09/18 02:09:38;;;;;;;;;3.00;0.75;;;;;20.47;70.77;100046.56;5075289;28;45261;-89
2023/09/18 02:12:04;;;;;;;;;1.25;1.00;;;;;20.46;70.92;100036.03;5084325;28;66247;-88
2023/09/18 02:14:30;;;;;;;;;1.00;1.00;;;;;20.44;70.50;100045.97;5085919;28;44832;-88
2023/09/18 02:16:55;;;;;;;;;2.00;2.00;;;;;20.43;70.64;100049.56;5083763;28;46083;-85
2023/09/18 02:19:21;;;;;;;;;1.50;1.50;;;;;20.39;70.94;100056.09;5079907;28;69454;-85
2023/09/18 02:21:46;;;;;;;;;2.00;2.00;;;;;20.36;70.76;100057.22;5084384;28;45442;-86
2023/09/18 02:24:12;;;;;;;;;2.25;1.00;;;;;20.34;70.73;100055.63;5079115;28;45492;-86
2023/09/18 02:26:37;;;;;;;;;0.50;0.00;;;;;20.33;71.13;100062.75;5079088;28;45316;-88
2023/09/18 02:29:05;;;;;;;;;0.75;0.75;;;;;20.32;71.33;100074.34;5063427;28;45260;-88
2023/09/18 02:31:31;;;;;;;;;3.75;1.00;;;;;20.32;71.62;100070.84;5070320;28;45568;-90
2023/09/18 02:33:56;;;;;;;;;2.00;0.75;;;;;20.29;71.31;100067.47;5081920;28;45267;-90
2023/09/18 02:36:22;;;;;;;;;1.00;1.00;;;;;20.27;71.81;100064.09;5081086;28;47801;-90
2023/09/18 02:38:47;;;;;;;;;1.25;1.00;;;;;20.24;71.61;100072.28;5079768;28;45349;-85
2023/09/18 02:41:12;;;;;;;;;2.50;1.00;;;;;20.25;71.87;100071.31;5078297;28;46013;-87
2023/09/18 02:43:38;;;;;;;;;3.00;1.00;;;;;20.23;72.04;100069.75;5079840;28;69043;-87
2023/09/18 02:46:05;;;;;;;;;3.25;1.75;;;;;20.21;71.63;100067.22;5068188;28;75605;-88
2023/09/18 02:48:30;;;;;;;;;2.00;1.25;;;;;20.19;71.26;100066.50;5074132;28;45664;-88
2023/09/18 02:50:56;;;;;;;;;2.75;1.25;;;;;20.19;71.53;100071.81;5075285;28;45517;-88
2023/09/18 02:53:23;;;;;;;;;3.25;2.25;;;;;20.16;72.01;100072.03;5078798;28;45319;-89
2023/09/18 02:55:50;;;;;;;;;4.00;2.50;;;;;20.11;71.60;100068.88;5073289;28;50316;-87
2023/09/18 02:58:16;;;;;;;;;3.25;1.75;;;;;20.10;71.77;100067.22;5073232;28;45465;-80
2023/09/18 03:00:49;;;;;;;;;2.75;2.00;;;;;20.06;71.60;100066.59;5090770;27;45312;-80
2023/09/18 03:03:15;;;;;;;;;2.00;2.00;;;;;20.04;71.95;100065.88;5073045;28;45469;-80
2023/09/18 03:05:42;;;;;;;;;3.25;2.25;;;;;20.01;71.78;100058.13;5073141;28;46224;-80
2023/09/18 03:08:08;;;;;;;;;5.00;1.25;;;;;19.96;71.94;100055.00;5075761;27;45299;-80
2023/09/18 03:10:37;;;;;;;;;4.00;1.50;;;;;19.96;71.67;100049.69;5078454;28;45508;-80
2023/09/18 03:13:03;;;;;;;;;2.25;1.75;;;;;19.92;72.83;100048.25;5069864;28;45287;-82
2023/09/18 03:15:30;;;;;;;;;2.50;2.00;;;;;19.88;72.33;100041.44;5067004;28;45934;-81
2023/09/18 03:17:55;;;;;;;;;1.50;1.00;;;;;19.82;72.54;100039.28;5086217;27;45773;-82
2023/09/18 03:20:25;;;;;;;;;0.75;0.75;;;;;19.80;72.41;100039.41;5078451;28;45484;-80
2023/09/18 03:22:54;;;;;;;;;2.50;2.00;;;;;19.78;72.86;100043.13;5074150;28;45758;-80
2023/09/18 03:25:20;;;;;;;;;2.75;2.00;;;;;19.76;72.47;100034.44;5059611;28;45312;-77
2023/09/18 03:27:45;;;;;;;;;1.75;1.50;;;;;19.72;73.17;100036.44;5072822;28;45448;-79
2023/09/18 03:30:15;;;;;;;;;2.50;1.00;;;;;19.70;73.13;100033.91;5074639;28;59675;-79
2023/09/18 03:32:41;;;;;;;;;1.00;1.00;;;;;19.68;73.14;100043.78;5072092;28;45352;-79
2023/09/18 03:35:08;;;;;;;;;1.00;1.00;;;;;19.66;73.01;100045.72;5071816;27;45456;-79
2023/09/18 03:37:34;;;;;;;;;3.00;1.00;;;;;19.61;73.59;100034.59;5079794;28;45641;-79
2023/09/18 03:39:59;;;;;;;;;6.00;2.00;;;;;19.58;73.16;100040.13;5067275;28;45462;-79
2023/09/18 03:42:25;;;;;;;;;3.00;1.50;;;;;19.58;73.21;100031.34;5078231;28;45183;-79
2023/09/18 03:44:51;;;;;;;;;2.00;2.00;;;;;19.55;73.42;100032.44;5081279;28;45500;-78
2023/09/18 03:47:16;;;;;;;;;1.00;1.00;;;;;19.56;73.52;100036.75;5077697;28;71110;-78
2023/09/18 03:49:41;;;;;;;;;4.00;2.00;;;;;19.55;73.47;100032.44;5080072;28;45378;-77
2023/09/18 03:52:07;;;;;;;;;3.00;1.75;;;;;19.54;73.44;100038.69;5081838;28;67410;-77
2023/09/18 03:54:32;;;;;;;;;2.75;1.00;;;;;19.54;73.68;100036.03;5076590;28;72649;-77
2023/09/18 03:56:57;;;;;;;;;3.00;2.00;;;;;19.52;73.75;100027.34;5072291;28;61157;-77
2023/09/18 03:59:23;;;;;;;;;4.25;2.00;;;;;19.54;73.89;100031.56;5080793;28;45414;-78
2023/09/18 04:01:49;;;;;;;;;3.00;2.00;;;;;19.50;74.63;100022.16;5066412;28;66307;-78
2023/09/18 04:04:15;;;;;;;;;3.00;3.00;;;;;19.53;73.81;100026.41;5075555;28;47505;-80
2023/09/18 04:06:42;;;;;;;;;2.50;1.25;;;;;19.53;74.09;100007.81;5082681;28;45337;-80
2023/09/18 04:09:08;;;;;;;;;3.00;2.00;;;;;19.53;73.67;100013.13;5076960;28;45240;-78
2023/09/18 04:11:33;;;;;;;;;2.25;2.25;;;;;19.54;74.12;100020.13;5074874;28;45761;-79
2023/09/18 04:14:00;;;;;;;;;2.50;2.00;;;;;19.50;74.04;100027.47;5070577;28;46313;-79
2023/09/18 04:16:27;;;;;;;;;2.00;2.00;;;;;19.48;73.60;100031.22;5078230;28;45898;-80
2023/09/18 04:18:53;;;;;;;;;3.00;3.00;;;;;19.44;74.87;100027.06;5078062;28;45373;-78
2023/09/18 04:21:18;;;;;;;;;4.50;3.00;;;;;19.43;74.99;100034.19;5064412;28;45415;-81
2023/09/18 04:23:44;;;;;;;;;5.50;3.00;;;;;19.39;75.35;100032.75;5080178;28;47353;-79
2023/09/18 04:26:10;;;;;;;;;4.50;3.00;;;;;19.39;74.81;100030.09;5073773;28;54405;-78
2023/09/18 04:28:36;;;;;;;;;2.25;2.25;;;;;19.35;74.42;100025.97;5071681;28;45349;-80
2023/09/18 04:31:01;;;;;;;;;2.00;2.00;;;;;19.30;74.84;100021.00;5074833;28;58752;-82
2023/09/18 04:33:28;;;;;;;;;5.00;2.00;;;;;19.25;75.58;100017.03;5078548;28;67524;-81
2023/09/18 04:35:53;;;;;;;;;3.50;2.50;;;;;19.21;75.33;100024.38;5069224;28;45609;-82
2023/09/18 04:38:19;;;;;;;;;3.25;3.00;;;;;19.17;75.46;100025.53;5076936;28;68343;-83
2023/09/18 04:40:45;;;;;;;;;4.50;3.00;;;;;19.17;75.59;100030.84;5074308;28;45275;-85
2023/09/18 04:43:11;;;;;;;;;2.25;2.25;;;;;19.18;75.72;100029.06;5076421;28;45559;-86
2023/09/18 04:45:36;;;;;;;;;4.00;3.00;;;;;19.20;75.94;100025.31;5080466;28;45838;-87
2023/09/18 04:48:02;;;;;;;;;3.00;2.25;;;;;19.24;75.70;100026.75;5074179;28;45276;-85
2023/09/18 04:50:28;;;;;;;;;6.75;3.00;;;;;19.25;76.15;100019.66;5076256;28;45279;-90
2023/09/18 04:52:54;;;;;;;;;3.75;2.00;;;;;19.23;75.49;100018.91;5074857;28;61622;-87
2023/09/18 04:55:21;;;;;;;;;3.00;2.75;;;;;19.19;75.67;100025.41;5073961;28;45785;-85
2023/09/18 04:57:46;;;;;;;;;1.00;1.00;;;;;19.17;75.46;100020.22;5069983;28;46400;-89
2023/09/18 05:00:13;;;;;;;;;5.50;4.00;;;;;19.16;76.01;100024.69;5089520;27;67060;-89
2023/09/18 05:02:39;;;;;;;;;5.50;3.25;;;;;19.13;75.92;100027.56;5088977;28;46400;-90
2023/09/18 05:05:05;;;;;;;;;4.50;2.50;;;;;19.12;75.86;100033.84;5085373;28;45415;-92
2023/09/18 05:07:31;;;;;;;;;4.75;3.00;;;;;19.09;76.29;100034.06;5087586;27;45548;-90
2023/09/18 05:09:56;;;;;;;;;3.25;3.25;;;;;19.07;76.52;100024.50;5082998;27;45421;-91
2023/09/18 05:12:23;;;;;;;;;4.25;3.25;;;;;19.07;76.33;100029.81;5073372;27;65166;-91
2023/09/18 05:14:48;;;;;;;;;5.25;2.00;;;;;19.07;76.42;100025.38;5077378;27;45732;-87
2023/09/18 05:17:17;;;;;;;;;3.50;3.50;;;;;19.06;76.17;100021.03;5084921;28;45268;-86
2023/09/18 05:19:43;;;;;;;;;4.00;3.75;;;;;19.07;76.70;100019.22;5090943;28;45142;-87
2023/09/18 05:22:12;;;;;;;;;2.25;1.75;;;;;19.06;76.99;100021.03;5106442;27;45792;-89
2023/09/18 05:24:38;;;;;;;;;3.00;3.00;;;;;19.05;77.11;100019.34;5076654;27;45516;-85
2023/09/18 05:27:06;;;;;;;;;4.00;4.00;;;;;19.06;76.80;100028.16;5075987;27;45700;-84
2023/09/18 05:29:31;;;;;;;;;4.50;4.50;;;;;19.08;76.49;100020.91;5083966;27;45250;-76
2023/09/18 05:31:57;;;;;;;;;4.00;3.25;;;;;19.11;76.65;100026.84;5075913;27;47184;-81
2023/09/18 05:34:22;;;;;;;;;4.00;3.50;;;;;19.16;76.59;100031.81;5075925;28;45468;-80
2023/09/18 05:36:48;;;;;;;;;5.75;4.00;;;;;19.16;76.60;100039.78;5072526;28;45372;-85
2023/09/18 05:39:13;;;;;;;;;4.25;4.00;;;;;19.21;76.51;100042.94;5077142;27;45603;-81
2023/09/18 05:41:39;;;;;;;;;4.75;4.50;;;;;19.25;76.37;100038.25;5073449;28;46238;-83
2023/09/18 05:44:07;;;;;;;;;4.50;3.25;;;;;19.28;75.96;100035.34;5090871;27;44717;-87
2023/09/18 05:46:34;;;;;;;;;5.00;3.00;;;;;19.30;75.77;100030.75;5093676;28;44781;-79
2023/09/18 05:49:00;;;;;;;;;2.50;2.50;;;;;19.33;75.87;100036.69;5086100;28;46222;-83
2023/09/18 05:51:25;;;;;;;;;4.25;3.00;;;;;19.32;76.14;100024.41;5087084;27;46089;-86
2023/09/18 05:53:51;;;;;;;;;6.00;4.25;;;;;19.36;76.05;100035.63;5076914;27;45376;-81
2023/09/18 05:56:17;;;;;;;;;15.50;15.50;;;;;19.39;75.62;100042.50;5077472;28;45440;-85
2023/09/18 05:58:43;;;;;;;;;10.25;8.50;;;;;19.43;75.92;100047.47;5076921;28;45420;-80
2023/09/18 06:01:09;;;;;;;;;7.00;5.75;;;;;19.45;75.79;100050.84;5072715;28;45351;-89
2023/09/18 06:03:35;;;;;;;;;5.25;4.00;;;;;19.49;75.59;100049.66;5076143;27;45405;-85
2023/09/18 06:06:02;;;;;;;;;7.50;4.25;;;;;19.53;75.59;100058.25;5076480;28;45411;-82
2023/09/18 06:08:28;;;;;;;;;3.00;2.25;;;;;19.58;75.75;100058.72;5078987;27;45362;-78
2023/09/18 06:10:55;;;;;;;;;7.25;5.50;;;;;19.61;75.51;100065.63;5063962;28;46596;-81
2023/09/18 06:13:20;;;;;;;;;7.00;4.50;;;;;19.62;75.30;100064.63;5071065;27;45377;-86
2023/09/18 06:15:46;;;;;;;;;5.50;5.50;;;;;19.63;75.52;100064.53;5075005;27;45453;-83
2023/09/18 06:18:11;;;;;;;;;5.50;4.00;;;;;19.65;74.72;100067.91;5080133;27;62466;-69
2023/09/18 06:20:37;;;;;;;;;6.75;5.00;;;;;19.65;75.31;100083.00;5076146;28;72471;-79
2023/09/18 06:23:03;;;;;;;;;6.00;5.00;;;;;19.65;74.71;100072.38;5074043;27;45517;-79
2023/09/18 06:25:31;;;;;;;;;6.75;4.50;;;;;19.66;74.96;100074.94;5075439;28;45350;-79
2023/09/18 06:27:56;;;;;;;;;5.25;4.00;;;;;19.69;75.21;100072.03;5068747;28;45709;-80
2023/09/18 06:30:21;;;;;;;;;8.50;6.75;;;;;19.73;74.86;100086.81;5071036;28;46524;-82
2023/09/18 06:32:47;;;;;;;;;7.50;5.00;;;;;19.79;75.15;100092.63;5072606;28;45427;-74
2023/09/18 06:35:12;;;;;;;;;6.25;5.50;;;;;19.83;75.12;100086.09;5074538;28;45398;-72
2023/09/18 06:37:38;;;;;;;;;6.00;6.00;;;;;19.85;74.89;100062.94;5069690;28;45336;-73
2023/09/18 06:40:03;;;;;;;;;0.50;0.50;;;;;19.89;74.85;100061.75;5068225;28;71285;-73
2023/09/18 06:42:29;;;;;;;;;6.75;6.75;;;;;19.89;74.78;100051.97;5066935;27;47152;-73
2023/09/18 06:44:55;;;;;;;;;3.50;3.50;;;;;19.90;74.20;100061.63;5066886;28;64257;-74
2023/09/18 06:47:21;;;;;;;;;7.75;5.75;;;;;19.98;73.88;100068.16;5072079;28;45572;-68
2023/09/18 06:49:47;;;;;;;;;5.00;5.00;;;;;19.99;73.77;100067.19;5078890;28;45516;-73
2023/09/18 06:52:12;;;;;;;;;9.00;6.25;;;;;20.03;73.99;100071.31;5068318;28;45445;-72
2023/09/18 06:54:38;;;;;;;;;7.75;7.00;;;;;20.04;74.00;100072.97;5070013;28;45279;-74
2023/09/18 06:57:04;;;;;;;;;5.25;4.25;;;;;20.06;73.54;100071.91;5068910;28;45403;-73
2023/09/18 06:59:29;;;;;;;;;5.75;5.75;;;;;20.09;73.75;100074.31;5061939;28;46136;-77
2023/09/18 07:01:55;;;;;;;;;6.25;5.50;;;;;20.17;73.33;100076.41;5073809;27;45445;-75
2023/09/18 07:04:21;;;;;;;;;8.25;7.75;;;;;20.26;73.39;100074.84;5076036;28;45795;-74
2023/09/18 07:06:46;;;;;;;;;8.00;8.00;;;;;20.35;73.40;100074.09;5070080;28;45577;-76
2023/09/18 07:09:12;;;;;;;;;7.25;6.50;;;;;20.45;72.81;100087.50;5074067;28;70741;-80
2023/09/18 07:11:38;;;;;;;;;9.25;6.00;;;;;20.54;72.40;100085.94;5068966;27;45704;-70
2023/09/18 07:14:06;;;;;;;;;9.00;7.00;;;;;20.64;72.66;100097.56;5079771;28;45445;-77
2023/09/18 07:16:31;;;;;;;;;10.25;6.75;;;;;20.68;71.75;100091.03;5064897;28;45430;-75
2023/09/18 07:18:57;;;;;;;;;11.00;6.00;;;;;20.79;71.87;100103.47;5073248;28;45635;-75
2023/09/18 07:21:22;;;;;;;;;9.25;8.00;;;;;20.82;71.24;100095.25;5067389;27;45290;-76
2023/09/18 07:23:48;;;;;;;;;6.00;6.00;;;;;20.89;71.18;100108.91;5067238;28;57336;-73
2023/09/18 07:26:13;;;;;;;;;10.50;7.00;;;;;20.88;70.83;100097.41;5074295;28;45407;-73
2023/09/18 07:28:38;;;;;;;;;8.75;5.75;;;;;20.92;71.03;100103.34;5074637;28;46034;-75
2023/09/18 07:31:08;;;;;;;;;6.25;6.00;;;;;20.97;70.93;100101.16;5075646;27;63103;-73
2023/09/18 07:33:34;;;;;;;;;6.75;6.00;;;;;21.02;70.30;100102.47;5072150;28;45380;-78
2023/09/18 07:35:59;;;;;;;;;5.50;5.50;;;;;21.09;70.40;100112.59;5080247;28;60437;-74
2023/09/18 07:38:24;;;;;;;;;6.00;4.25;;;;;21.15;69.61;100104.13;5078246;28;47056;-73
2023/09/18 07:40:50;;;;;;;;;9.50;7.00;;;;;21.20;69.68;100118.75;5082278;27;45535;-73
2023/09/18 07:43:15;;;;;;;;;7.75;6.00;;;;;21.25;69.16;100102.41;5079858;27;45708;-74
2023/09/18 07:45:41;;;;;;;;;6.25;4.75;;;;;21.30;68.93;100110.88;5081597;28;72127;-74
2023/09/18 07:48:07;;;;;;;;;8.00;7.25;;;;;21.32;69.38;100108.06;5080014;27;46264;-75
2023/09/18 07:50:33;;;;;;;;;11.50;6.50;;;;;21.35;69.06;100116.63;5078364;27;45486;-74
2023/09/18 07:52:59;;;;;;;;;7.50;6.00;;;;;21.38;68.71;100119.06;5065910;28;45391;-72
2023/09/18 07:55:24;;;;;;;;;6.75;6.75;;;;;21.41;68.40;100099.34;5080176;28;45255;-75
2023/09/18 07:57:51;;;;;;;;;9.25;7.25;;;;;21.42;68.08;100115.19;5081008;28;47107;-75
2023/09/18 08:00:17;;;;;;;;;8.00;5.00;;;;;21.42;67.76;100116.97;5066726;27;45727;-77
2023/09/18 08:02:42;;;;;;;;;8.00;6.00;;;;;21.37;67.97;100120.03;5069979;28;45450;-81
2023/09/18 08:05:08;;;;;;;;;6.50;4.25;;;;;21.31;66.80;100107.22;5056654;28;45340;-79
2023/09/18 08:07:35;;;;;;;;;11.75;6.00;;;;;21.23;66.57;100102.53;5073977;28;46818;-78
2023/09/18 08:10:01;;;;;;;;;6.50;5.25;;;;;21.27;67.69;100108.44;5062335;27;45735;-79
2023/09/18 08:12:27;;;;;;;;;7.00;6.00;;;;;21.32;67.39;100113.38;5076348;28;45345;-78
2023/09/18 08:14:52;;;;;;;;;10.25;6.00;;;;;21.35;67.05;100116.63;5071296;28;45553;-80
2023/09/18 08:17:17;;;;;;;;;48.00;36.50;;;;;21.43;67.18;100110.69;5065196;28;45520;-75
2023/09/18 08:19:44;;;;;;;;;9.00;7.75;;;;;21.48;66.39;100118.31;5078372;28;45329;-78
2023/09/18 08:22:11;;;;;;;;;29.00;22.75;;;;;21.52;66.90;100111.78;5068888;27;45244;-76
2023/09/18 08:24:37;;;;;;;;;5.25;4.25;;;;;21.58;66.36;100113.94;5089213;27;45759;-75
2023/09/18 08:27:03;;;;;;;;;7.25;6.00;;;;;21.62;66.46;100118.03;5067602;28;45384;-74
2023/09/18 08:29:28;;;;;;;;;7.00;5.25;;;;;21.66;66.52;100113.31;5069827;28;45484;-75
2023/09/18 08:31:54;;;;;;;;;5.50;5.50;;;;;21.68;65.99;100111.34;5076725;27;60162;-74
2023/09/18 08:34:19;;;;;;;;;5.25;4.25;;;;;21.68;65.48;100114.84;5070194;28;45564;-76
2023/09/18 08:36:44;;;;;;;;;5.50;4.25;;;;;21.69;66.26;100116.56;5068579;28;75722;-72
2023/09/18 08:39:10;;;;;;;;;6.50;4.50;;;;;21.69;65.46;100118.34;5070273;28;54461;-74
2023/09/18 08:41:38;;;;;;;;;7.00;6.00;;;;;21.68;65.82;100119.34;5070877;28;45387;-74
2023/09/18 08:44:07;;;;;;;;;6.00;4.25;;;;;21.67;65.54;100105.16;5068561;28;45309;-74
2023/09/18 08:46:34;;;;;;;;;6.00;4.00;;;;;21.67;64.80;100113.16;5077480;27;46631;-74
2023/09/18 08:49:00;;;;;;;;;4.50;3.75;;;;;21.67;64.97;100114.97;5067104;28;45491;-73
2023/09/18 08:51:26;;;;;;;;;5.00;3.50;;;;;21.67;65.26;100117.63;5077400;27;45411;-73
2023/09/18 08:53:51;;;;;;;;;5.00;4.00;;;;;21.68;65.21;100125.50;5071511;27;45827;-72
2023/09/18 08:56:17;;;;;;;;;6.50;4.00;;;;;21.68;64.73;100122.84;5073915;28;46047;-73
2023/09/18 08:58:43;;;;;;;;;6.50;6.00;;;;;21.68;64.55;100125.50;5074825;27;45436;-72
2023/09/18 09:01:12;;;;;;;;;5.00;5.00;;;;;21.70;64.78;100136.88;5078827;27;45423;-72
2023/09/18 09:03:39;;;;;;;;;7.00;5.00;;;;;21.68;63.59;100132.66;5073264;27;45169;-72
2023/09/18 09:06:06;;;;;;;;;6.00;4.25;;;;;21.64;63.93;100132.06;5078022;27;46911;-75
2023/09/18 09:08:31;;;;;;;;;5.00;5.00;;;;;21.61;64.14;100132.31;5065722;27;45469;-77
2023/09/18 09:11:00;;;;;;;;;4.50;4.50;;;;;21.60;64.77;100134.16;5090997;27;45370;-74
2023/09/18 09:13:26;;;;;;;;;6.50;5.25;;;;;21.63;64.41;100135.69;5073736;28;45583;-73
2023/09/18 09:15:54;;;;;;;;;10.75;8.00;;;;;21.69;63.90;100121.00;5074104;27;45417;-74
2023/09/18 09:18:19;;;;;;;;;22.75;19.00;;;;;21.74;63.60;100133.00;5066192;28;47598;-77
2023/09/18 09:20:59;;;;;;;;;5.25;4.25;;;;;21.80;63.78;100126.31;5071029;28;45425;-73
2023/09/18 09:23:29;;;;;;;;;5.75;4.75;;;;;21.86;63.28;100124.94;5063897;27;45237;-72
2023/09/18 09:26:12;;;;;;;;;8.25;3.00;;;;;21.91;63.00;100125.41;5068766;28;46240;-73
2023/09/18 09:28:37;;;;;;;;;6.00;5.00;;;;;21.96;63.74;100128.53;5066956;28;47686;-73
2023/09/18 09:31:03;;;;;;;;;4.00;4.00;;;;;21.97;63.08;100123.06;5078289;27;45417;-72
2023/09/18 09:33:29;;;;;;;;;10.00;5.25;;;;;22.06;62.11;100120.56;5064368;28;45548;-73
2023/09/18 09:35:56;;;;;;;;;6.00;4.00;;;;;22.09;62.26;100125.66;5070364;28;46509;-74
2023/09/18 09:38:28;;;;;;;;;7.00;6.00;;;;;22.16;62.45;100113.50;5091575;27;45905;-75
2023/09/18 09:40:53;;;;;;;;;6.00;4.00;;;;;22.22;62.97;100123.63;5074412;27;45757;-74
2023/09/18 09:43:19;;;;;;;;;7.00;4.25;;;;;22.28;62.14;100132.97;5078740;27;45294;-73
2023/09/18 09:45:46;;;;;;;;;4.00;3.50;;;;;22.30;61.65;100118.50;5073473;27;45501;-74
2023/09/18 09:48:11;;;;;;;;;6.25;3.50;;;;;22.34;61.34;100127.09;5073858;28;45492;-74
2023/09/18 09:50:48;;;;;;;;;3.50;3.00;;;;;22.37;60.99;100129.50;5072698;27;45390;-73
2023/09/18 09:53:14;;;;;;;;;4.00;4.00;;;;;22.41;61.02;100124.75;5072756;28;45584;-73
2023/09/18 09:55:40;;;;;;;;;4.00;4.00;;;;;22.43;60.27;100134.28;5076056;28;46226;-74
2023/09/18 09:58:08;;;;;;;;;3.00;3.00;;;;;22.43;60.63;100136.94;5073301;28;45642;-71
2023/09/18 10:00:40;;;;;;;;;4.50;3.50;;;;;22.44;60.58;100138.66;5067698;27;45548;-74
2023/09/18 10:03:08;;;;;;;;;3.75;3.75;;;;;22.46;59.90;100136.69;5065141;28;45522;-72
2023/09/18 10:05:38;;;;;;;;;3.00;3.00;;;;;22.51;60.45;100139.81;5073416;28;46414;-73
2023/09/18 10:08:07;;;;;;;;;4.25;4.25;;;;;22.54;60.11;100134.22;5073032;28;45430;-73
2023/09/18 10:10:35;;;;;;;;;6.75;5.25;;;;;22.63;60.40;100145.03;5071148;27;45488;-72
2023/09/18 10:13:07;;;;;;;;;5.75;5.50;;;;;22.70;60.43;100139.06;5066848;27;45377;-73
2023/09/18 10:15:38;;;;;;;;;10.00;5.25;;;;;22.80;60.31;100138.25;5073184;28;46343;-78
2023/09/18 10:18:07;;;;;;;;;5.25;4.00;;;;;22.87;59.95;100128.72;5076834;28;45652;-73
2023/09/18 10:20:36;;;;;;;;;4.25;4.25;;;;;22.94;59.89;100130.69;5072094;27;45510;-73
2023/09/18 10:23:02;;;;;;;;;4.75;4.00;;;;;23.00;59.51;100129.31;5079634;27;45292;-72
2023/09/18 10:25:31;;;;;;;;;2.25;2.25;;;;;23.08;59.11;100118.00;5072002;28;45979;-73
2023/09/18 10:28:02;;;;;;;;;4.25;3.00;;;;;23.14;58.61;100128.09;5067565;28;45330;-73
2023/09/18 10:30:29;;;;;;;;;5.00;4.00;;;;;23.22;58.93;100141.63;5065132;27;45363;-73
2023/09/18 10:32:57;;;;;;;;;4.25;2.75;;;;;23.26;57.38;100140.34;5053630;28;45582;-74
2023/09/18 10:35:23;;;;;;;;;3.00;3.00;;;;;23.27;56.91;100136.72;5064508;28;46930;-75
2023/09/18 10:37:51;;;;;;;;;4.25;2.25;;;;;23.39;57.45;100141.91;5066178;28;59925;-72
2023/09/18 10:40:17;;;;;;;;;4.25;3.50;;;;;23.50;56.21;100145.31;5083797;27;45683;-79
2023/09/18 10:42:42;;;;;;;;;3.00;1.25;;;;;23.57;56.47;100142.94;5076477;28;61910;-73
2023/09/18 10:45:12;;;;;;;;;2.25;2.00;;;;;23.65;55.96;100140.38;5064310;28;47371;-75
2023/09/18 10:47:43;;;;;;;;;6.50;4.00;;;;;23.76;55.61;100136.75;5069915;28;45639;-78
2023/09/18 10:50:09;;;;;;;;;3.25;3.25;;;;;23.85;55.32;100135.91;5072132;28;45488;-84
2023/09/18 10:52:36;;;;;;;;;3.50;3.25;;;;;24.00;55.39;100143.50;5079679;28;45732;-76
2023/09/18 10:55:04;;;;;;;;;4.00;4.00;;;;;24.18;56.31;100141.75;5068916;28;46360;-74
2023/09/18 10:57:34;;;;;;;;;3.00;2.75;;;;;24.28;55.80;100125.72;5075364;27;45635;-75
2023/09/18 11:00:00;;;;;;;;;3.25;3.25;;;;;24.41;55.64;100141.44;5059221;28;45405;-69
2023/09/18 11:02:27;;;;;;;;;4.50;3.25;;;;;24.39;54.27;100144.25;5077774;28;45601;-70
2023/09/18 11:04:54;;;;;;;;;4.50;4.50;;;;;24.37;54.08;100142.72;5083373;27;58153;-71
2023/09/18 11:07:21;;;;;;;;;5.25;2.75;;;;;24.44;54.63;100147.31;5073029;28;45289;-75
2023/09/18 11:09:46;;;;;;;;;2.75;2.25;;;;;24.48;53.83;100141.69;5071533;27;45263;-74
2023/09/18 11:12:15;;;;;;;;;3.75;2.75;;;;;24.44;54.54;100147.31;5067741;27;60096;-74
2023/09/18 11:14:42;;;;;;;;;2.50;2.50;;;;;24.44;53.83;100150.00;5074810;27;46280;-75
2023/09/18 11:17:30;;;;;;;;;3.00;3.00;;;;;24.37;54.46;100146.22;5077412;28;45782;-75
2023/09/18 11:20:04;;;;;;;;;2.75;1.50;;;;;24.33;53.76;100136.81;5070106;28;45388;-75